Time;durP1;ratioP1;P1;durP2;ratioP2;P2;SDS_P1;SDS_P2;PMS_P1;PMS_P2;Temp;Humidity;BMP_temperature;BMP_pressure;BME280_temperature;BME280_humidity;BME280_pressure;Samples;Min_cycle;Max_cycle;Signal;HPM_P1;HPM_P2
2022/09/02 00:01:48;;;;;;;4.72;3.20;;;;;;;;;;10043772;29;21067;-80
2022/09/02 00:06:51;;;;;;;4.65;3.53;;;;;;;;;;10044762;29;20778;-81
2022/09/02 00:11:54;;;;;;;5.30;3.60;;;;;;;;;;10044205;29;20786;-81
2022/09/02 00:16:59;;;;;;;4.75;3.90;;;;;;;;;;10049293;29;20773;-80
2022/09/02 00:22:02;;;;;;;5.93;3.90;;;;;;;;;;10074190;29;20430;-81
2022/09/02 00:27:04;;;;;;;5.70;3.60;;;;;;;;;;10076553;29;20419;-80
2022/09/02 00:32:07;;;;;;;5.05;3.50;;;;;;;;;;10076805;29;20705;-81
2022/09/02 00:37:09;;;;;;;6.80;3.30;;;;;;;;;;10082330;29;20495;-80
2022/09/02 00:42:11;;;;;;;5.00;3.20;;;;;;;;;;10078900;29;20427;-82
2022/09/02 00:47:15;;;;;;;6.18;3.45;;;;;;;;;;10047721;29;20413;-82
2022/09/02 00:52:21;;;;;;;3.90;3.50;;;;;;;;;;10051244;29;20428;-80
2022/09/02 00:57:25;;;;;;;5.97;3.43;;;;;;;;;;10053201;29;20447;-81
2022/09/02 01:02:30;;;;;;;5.65;3.60;;;;;;;;;;10071584;29;20406;-81
2022/09/02 01:07:35;;;;;;;12.90;4.20;;;;;;;;;;10079114;29;20452;-81
2022/09/02 01:12:38;;;;;;;5.67;3.87;;;;;;;;;;10048171;29;20943;-81
2022/09/02 01:17:43;;;;;;;4.47;3.50;;;;;;;;;;10084432;29;20421;-80
2022/09/02 01:22:46;;;;;;;4.32;3.60;;;;;;;;;;10085323;29;20473;-80
2022/09/02 01:27:49;;;;;;;4.50;3.80;;;;;;;;;;10074546;29;20422;-80
2022/09/02 01:32:51;;;;;;;4.68;3.80;;;;;;;;;;10084816;29;20471;-80
2022/09/02 01:37:56;;;;;;;4.13;3.37;;;;;;;;;;10085314;29;20484;-81
2022/09/02 01:43:01;;;;;;;4.43;3.95;;;;;;;;;;10082813;29;20525;-80
2022/09/02 01:48:03;;;;;;;5.20;3.60;;;;;;;;;;10079694;29;20410;-80
2022/09/02 01:53:08;;;;;;;5.03;3.63;;;;;;;;;;10081719;29;20439;-80
2022/09/02 01:58:10;;;;;;;4.85;3.83;;;;;;;;;;10077429;29;20477;-81
2022/09/02 02:03:12;;;;;;;5.18;4.28;;;;;;;;;;10076199;29;20651;-81
2022/09/02 02:08:16;;;;;;;5.50;3.60;;;;;;;;;;10084690;29;20618;-81
2022/09/02 02:13:18;;;;;;;5.63;4.10;;;;;;;;;;10084176;29;20474;-82
2022/09/02 02:18:19;;;;;;;4.72;4.10;;;;;;;;;;10072171;29;20421;-81
2022/09/02 02:23:23;;;;;;;5.47;4.45;;;;;;;;;;10082955;29;20427;-82
2022/09/02 02:28:25;;;;;;;5.60;4.60;;;;;;;;;;10080838;29;20415;-81
2022/09/02 02:33:28;;;;;;;5.13;4.18;;;;;;;;;;10080475;29;20938;-81
2022/09/02 02:38:32;;;;;;;5.78;4.20;;;;;;;;;;10079822;29;20431;-81
2022/09/02 02:43:35;;;;;;;5.13;3.93;;;;;;;;;;10079751;29;20417;-82
2022/09/02 02:48:37;;;;;;;8.23;4.30;;;;;;;;;;10078932;29;20440;-81
2022/09/02 02:53:41;;;;;;;7.20;4.33;;;;;;;;;;10078282;29;20439;-81
2022/09/02 02:58:43;;;;;;;5.93;4.15;;;;;;;;;;10070931;29;20777;-82
2022/09/02 03:03:44;;;;;;;5.77;3.80;;;;;;;;;;10075738;29;20415;-80
2022/09/02 03:08:48;;;;;;;5.70;4.07;;;;;;;;;;10080609;29;20421;-81
2022/09/02 03:13:50;;;;;;;5.10;3.65;;;;;;;;;;10078542;29;20442;-82
2022/09/02 03:18:52;;;;;;;3.75;3.20;;;;;;;;;;10076959;29;20426;-81
2022/09/02 03:23:55;;;;;;;4.47;3.10;;;;;;;;;;10078015;29;20416;-81
2022/09/02 03:28:58;;;;;;;4.55;3.00;;;;;;;;;;10078047;29;20426;-81
2022/09/02 03:34:00;;;;;;;3.60;2.45;;;;;;;;;;10078700;29;20943;-81
2022/09/02 03:39:04;;;;;;;3.53;2.60;;;;;;;;;;10078846;29;20818;-81
2022/09/02 03:44:06;;;;;;;4.53;2.70;;;;;;;;;;10077709;29;20431;-80
2022/09/02 03:49:09;;;;;;;3.40;2.42;;;;;;;;;;10076217;29;20759;-80
2022/09/02 03:54:13;;;;;;;3.38;2.60;;;;;;;;;;10075556;29;20434;-81
2022/09/02 03:59:15;;;;;;;3.90;2.35;;;;;;;;;;10064192;29;20444;-80
2022/09/02 04:04:19;;;;;;;3.53;2.80;;;;;;;;;;10055373;29;20424;-80
2022/09/02 04:09:22;;;;;;;3.40;2.50;;;;;;;;;;10078493;29;20461;-80
2022/09/02 04:14:24;;;;;;;3.03;2.80;;;;;;;;;;10077767;29;20442;-80
2022/09/02 04:19:26;;;;;;;3.53;2.70;;;;;;;;;;10077148;29;20408;-79
2022/09/02 04:24:30;;;;;;;5.05;2.60;;;;;;;;;;10079521;29;20522;-78
2022/09/02 04:29:31;;;;;;;5.57;2.88;;;;;;;;;;10077207;29;20419;-81
2022/09/02 04:34:33;;;;;;;3.50;2.80;;;;;;;;;;10076108;29;20439;-80
2022/09/02 04:39:36;;;;;;;4.60;2.80;;;;;;;;;;10076877;29;20411;-82
2022/09/02 04:44:38;;;;;;;3.13;2.83;;;;;;;;;;10073280;29;20415;-81
2022/09/02 04:49:40;;;;;;;3.90;3.05;;;;;;;;;;10074004;29;20415;-81
2022/09/02 04:54:44;;;;;;;4.03;3.00;;;;;;;;;;10073646;29;20937;-81
2022/09/02 04:59:45;;;;;;;4.53;3.15;;;;;;;;;;10063409;29;20776;-81
2022/09/02 05:04:48;;;;;;;3.50;2.88;;;;;;;;;;10063598;29;20407;-80
2022/09/02 05:09:56;;;;;;;4.10;2.95;;;;;;;;;;10062151;29;20445;-79
2022/09/02 05:14:59;;;;;;;3.20;2.65;;;;;;;;;;10061770;29;20920;-80
2022/09/02 05:20:02;;;;;;;3.92;2.88;;;;;;;;;;10064679;29;20570;-80
2022/09/02 05:25:08;;;;;;;3.50;3.00;;;;;;;;;;10055877;29;20503;-80
2022/09/02 05:30:11;;;;;;;3.80;2.75;;;;;;;;;;10055914;29;20508;-80
2022/09/02 05:35:12;;;;;;;3.88;2.75;;;;;;;;;;10049819;29;20458;-80
2022/09/02 05:40:16;;;;;;;5.60;3.00;;;;;;;;;;10103154;23;20558;-88
2022/09/02 05:45:19;;;;;;;3.40;2.70;;;;;;;;;;10113460;29;20508;-87
2022/09/02 05:50:23;;;;;;;3.13;2.80;;;;;;;;;;10114983;29;20508;-87
2022/09/02 05:55:26;;;;;;;4.93;3.38;;;;;;;;;;10106203;29;20429;-86
2022/09/02 06:00:29;;;;;;;5.60;3.17;;;;;;;;;;10106212;29;20415;-87
2022/09/02 06:05:31;;;;;;;3.10;2.80;;;;;;;;;;10119882;29;20417;-87
2022/09/02 06:10:35;;;;;;;3.33;2.90;;;;;;;;;;10123815;29;20977;-87
2022/09/02 06:15:42;;;;;;;4.57;2.70;;;;;;;;;;10123393;29;20496;-86
2022/09/02 06:20:47;;;;;;;5.10;2.83;;;;;;;;;;10120187;29;20452;-87
2022/09/02 06:25:50;;;;;;;4.10;2.80;;;;;;;;;;10108180;29;20419;-86
2022/09/02 06:30:52;;;;;;;2.97;2.40;;;;;;;;;;10097307;29;20517;-87
2022/09/02 06:35:54;;;;;;;2.72;2.45;;;;;;;;;;10092128;29;20526;-87
2022/09/02 06:40:57;;;;;;;3.03;2.20;;;;;;;;;;10089249;29;20514;-86
2022/09/02 06:45:59;;;;;;;2.60;2.40;;;;;;;;;;10088174;29;20510;-87
2022/09/02 06:51:01;;;;;;;3.63;2.10;;;;;;;;;;10086521;29;20498;-87
2022/09/02 06:56:07;;;;;;;3.17;2.08;;;;;;;;;;10110194;29;20469;-87
2022/09/02 07:01:09;;;;;;;4.03;2.40;;;;;;;;;;10122639;29;20413;-86
2022/09/02 07:06:12;;;;;;;2.83;2.08;;;;;;;;;;10122826;29;20413;-87
2022/09/02 07:11:22;;;;;;;3.60;2.30;;;;;;;;;;10121304;29;21098;-87
2022/09/02 07:16:24;;;;;;;2.35;2.10;;;;;;;;;;10120978;29;20472;-87
2022/09/02 07:21:26;;;;;;;2.22;2.00;;;;;;;;;;10111346;29;20415;-87
2022/09/02 07:26:29;;;;;;;2.22;2.00;;;;;;;;;;10089872;29;20423;-87
2022/09/02 07:31:31;;;;;;;5.40;2.03;;;;;;;;;;10090929;29;20509;-87
2022/09/02 07:36:33;;;;;;;4.20;2.00;;;;;;;;;;10095385;29;20520;-87
2022/09/02 07:41:38;;;;;;;2.58;2.33;;;;;;;;;;10114977;29;20451;-87
2022/09/02 07:46:40;;;;;;;2.15;1.92;;;;;;;;;;10116404;29;20503;-87
2022/09/02 07:51:48;;;;;;;4.47;1.90;;;;;;;;;;10110808;29;20433;-88
2022/09/02 07:56:52;;;;;;;4.20;1.70;;;;;;;;;;10116976;29;20448;-87
2022/09/02 08:01:54;;;;;;;3.70;1.60;;;;;;;;;;10108711;29;20521;-88
2022/09/02 08:06:56;;;;;;;3.00;1.80;;;;;;;;;;10120157;29;20521;-87
2022/09/02 08:11:59;;;;;;;2.03;1.67;;;;;;;;;;10119719;29;20448;-87
2022/09/02 08:17:02;;;;;;;2.95;1.40;;;;;;;;;;10107004;29;20522;-87
2022/09/02 08:22:05;;;;;;;2.53;1.60;;;;;;;;;;10089256;29;20903;-87
2022/09/02 08:27:08;;;;;;;2.15;1.50;;;;;;;;;;10100292;29;20782;-87
2022/09/02 08:32:10;;;;;;;2.30;1.50;;;;;;;;;;10119791;29;20977;-87
2022/09/02 08:37:12;;;;;;;2.90;1.60;;;;;;;;;;10119273;29;20430;-87
2022/09/02 08:42:22;;;;;;;3.03;1.45;;;;;;;;;;10119500;29;20420;-87
2022/09/02 08:47:29;;;;;;;1.60;1.50;;;;;;;;;;10117397;29;20425;-87
2022/09/02 08:52:36;;;;;;;3.55;1.80;;;;;;;;;;10118014;29;20413;-87
2022/09/02 08:57:40;;;;;;;1.40;1.30;;;;;;;;;;10120469;29;20437;-87
2022/09/02 09:02:55;;;;;;;3.07;1.30;;;;;;;;;;10103011;29;20866;-86
2022/09/02 09:08:06;;;;;;;3.35;1.30;;;;;;;;;;10141100;29;20424;-86
2022/09/02 09:13:23;;;;;;;1.80;1.10;;;;;;;;;;10146770;29;20412;-87
2022/09/02 09:18:33;;;;;;;1.83;1.30;;;;;;;;;;10159214;29;20417;-87
2022/09/02 09:23:38;;;;;;;1.40;1.20;;;;;;;;;;10141297;29;20437;-87
2022/09/02 09:28:44;;;;;;;2.13;1.20;;;;;;;;;;10146401;29;20413;-87
2022/09/02 09:33:57;;;;;;;2.10;1.30;;;;;;;;;;10128337;29;20953;-87
2022/09/02 09:38:59;;;;;;;1.73;1.20;;;;;;;;;;10113798;29;20519;-88
2022/09/02 09:44:02;;;;;;;2.22;1.10;;;;;;;;;;10126893;29;20499;-87
2022/09/02 09:49:05;;;;;;;2.45;1.20;;;;;;;;;;10115128;29;20587;-87
2022/09/02 09:54:15;;;;;;;1.52;1.30;;;;;;;;;;10126049;29;20433;-87
2022/09/02 09:59:38;;;;;;;1.92;1.58;;;;;;;;;;10109466;29;20871;-85
2022/09/02 10:04:40;;;;;;;2.30;1.25;;;;;;;;;;10095926;29;20425;-88
2022/09/02 10:09:42;;;;;;;2.80;1.60;;;;;;;;;;10091803;29;20420;-87
2022/09/02 10:14:47;;;;;;;2.95;1.63;;;;;;;;;;10091981;29;20449;-87
2022/09/02 10:19:55;;;;;;;2.00;1.60;;;;;;;;;;10092833;29;20411;-87
2022/09/02 10:25:08;;;;;;;2.58;1.67;;;;;;;;;;10087217;29;20426;-87
2022/09/02 10:30:18;;;;;;;2.22;1.58;;;;;;;;;;10092549;29;20780;-87
2022/09/02 10:35:26;;;;;;;3.27;1.83;;;;;;;;;;10087357;29;20813;-87
2022/09/02 10:40:36;;;;;;;2.33;1.80;;;;;;;;;;10100881;29;20933;-87
2022/09/02 10:45:46;;;;;;;2.63;1.77;;;;;;;;;;10093539;29;20444;-87
2022/09/02 10:50:53;;;;;;;1.90;1.80;;;;;;;;;;10087162;29;20409;-86
2022/09/02 10:55:58;;;;;;;2.10;1.80;;;;;;;;;;10083272;29;20458;-87
2022/09/02 11:01:03;;;;;;;1.77;1.60;;;;;;;;;;10081545;29;20641;-87
2022/09/02 11:06:12;;;;;;;3.25;1.60;;;;;;;;;;10081613;29;20413;-86
2022/09/02 11:11:20;;;;;;;2.20;1.60;;;;;;;;;;10076203;29;20426;-87
2022/09/02 11:16:28;;;;;;;4.10;1.70;;;;;;;;;;10081221;29;20442;-86
2022/09/02 11:21:40;;;;;;;1.77;1.65;;;;;;;;;;10079946;29;20508;-86
2022/09/02 11:26:53;;;;;;;2.60;1.58;;;;;;;;;;10086131;29;20514;-87
2022/09/02 11:32:07;;;;;;;2.58;1.63;;;;;;;;;;10089522;29;20438;-86
2022/09/02 11:37:11;;;;;;;2.70;1.90;;;;;;;;;;10091038;29;20438;-87
2022/09/02 11:42:32;;;;;;;1.77;1.60;;;;;;;;;;10101496;29;21012;-87
2022/09/02 11:47:56;;;;;;;2.47;1.77;;;;;;;;;;10104910;29;20458;-87
2022/09/02 11:53:06;;;;;;;2.30;1.80;;;;;;;;;;10100686;29;20761;-87
2022/09/02 11:58:08;;;;;;;2.00;1.80;;;;;;;;;;10091485;29;20526;-87
2022/09/02 12:03:18;;;;;;;2.22;1.60;;;;;;;;;;10084273;29;20505;-86
2022/09/02 12:09:09;;;;;;;2.00;1.70;;;;;;;;;;10092749;29;20419;-88
2022/09/02 12:15:03;;;;;;;2.17;1.83;;;;;;;;;;10110187;29;20472;-88
2022/09/02 12:20:09;;;;;;;2.20;2.00;;;;;;;;;;10059363;29;20402;-88
2022/09/02 12:25:41;;;;;;;1.73;1.63;;;;;;;;;;10081129;29;20422;-88
2022/09/02 12:31:16;;;;;;;2.13;1.90;;;;;;;;;;10093957;29;20421;-88
2022/09/02 12:36:50;;;;;;;2.05;1.80;;;;;;;;;;10064474;29;20436;-87
2022/09/02 12:42:01;;;;;;;2.45;2.00;;;;;;;;;;10090773;29;20883;-88
2022/09/02 12:47:08;;;;;;;2.72;1.80;;;;;;;;;;10088983;29;20421;-88
2022/09/02 12:52:33;;;;;;;1.83;1.70;;;;;;;;;;10082359;29;20821;-88
2022/09/02 12:57:40;;;;;;;2.72;1.80;;;;;;;;;;10079330;29;21554;-87
2022/09/02 13:02:54;;;;;;;1.90;1.67;;;;;;;;;;10082608;29;20500;-88
2022/09/02 13:08:16;;;;;;;3.28;1.83;;;;;;;;;;10079798;29;20509;-88
2022/09/02 13:13:50;;;;;;;2.40;1.60;;;;;;;;;;10090649;29;20566;-87
2022/09/02 13:19:26;;;;;;;1.67;1.58;;;;;;;;;;10076504;29;20438;-88
2022/09/02 13:25:04;;;;;;;2.50;1.60;;;;;;;;;;10086840;29;20456;-88
2022/09/02 13:30:13;;;;;;;1.90;1.50;;;;;;;;;;10108425;29;20872;-87
2022/09/02 13:35:20;;;;;;;3.10;1.80;;;;;;;;;;10106848;29;20447;-88
2022/09/02 13:40:27;;;;;;;3.55;1.75;;;;;;;;;;10116639;29;20550;-87
2022/09/02 13:45:30;;;;;;;1.60;1.50;;;;;;;;;;10114903;29;20417;-87
2022/09/02 13:50:34;;;;;;;1.92;1.58;;;;;;;;;;10125147;29;20421;-87
2022/09/02 13:55:39;;;;;;;1.67;1.58;;;;;;;;;;10131596;29;20463;-86
2022/09/02 14:00:41;;;;;;;1.60;1.50;;;;;;;;;;10118998;29;20928;-87
2022/09/02 14:05:45;;;;;;;3.28;1.80;;;;;;;;;;10117779;29;20476;-87
2022/09/02 14:10:51;;;;;;;2.30;1.63;;;;;;;;;;10124039;29;20448;-88
2022/09/02 14:15:53;;;;;;;2.35;1.60;;;;;;;;;;10115620;29;20445;-89
2022/09/02 14:20:59;;;;;;;2.33;1.80;;;;;;;;;;10110949;29;20423;-88
2022/09/02 14:26:05;;;;;;;2.05;1.80;;;;;;;;;;10114859;29;20938;-87
2022/09/02 14:31:08;;;;;;;3.15;1.70;;;;;;;;;;10125012;29;20448;-86
2022/09/02 14:36:29;;;;;;;2.67;1.77;;;;;;;;;;10110389;29;20813;-87
2022/09/02 14:41:35;;;;;;;2.67;1.52;;;;;;;;;;10109567;29;20946;-86
2022/09/02 14:46:43;;;;;;;1.58;1.48;;;;;;;;;;10113539;29;20805;-87
2022/09/02 14:51:47;;;;;;;1.92;1.73;;;;;;;;;;10118465;29;20416;-87
2022/09/02 14:56:52;;;;;;;1.73;1.60;;;;;;;;;;10116748;29;20441;-87
2022/09/02 15:01:56;;;;;;;2.13;1.50;;;;;;;;;;10115018;29;20851;-86
2022/09/02 15:07:00;;;;;;;1.60;1.50;;;;;;;;;;10120629;29;20421;-87
2022/09/02 15:12:03;;;;;;;2.38;1.70;;;;;;;;;;10104391;29;20949;-87
2022/09/02 15:17:09;;;;;;;1.88;1.73;;;;;;;;;;10119817;29;20529;-88
2022/09/02 15:22:11;;;;;;;3.30;1.73;;;;;;;;;;10116692;29;20424;-88
2022/09/02 15:27:15;;;;;;;3.35;1.80;;;;;;;;;;10113465;29;20440;-87
2022/09/02 15:32:17;;;;;;;2.25;1.70;;;;;;;;;;10110158;29;20413;-87
2022/09/02 15:37:19;;;;;;;1.75;1.65;;;;;;;;;;10120526;29;20487;-88
2022/09/02 15:42:22;;;;;;;2.37;1.70;;;;;;;;;;10108425;29;20556;-88
2022/09/02 15:47:25;;;;;;;2.13;1.80;;;;;;;;;;10099517;29;20497;-87
2022/09/02 15:52:26;;;;;;;1.70;1.60;;;;;;;;;;10105199;29;20455;-85
2022/09/02 15:57:30;;;;;;;2.03;1.83;;;;;;;;;;10112732;29;20437;-85
2022/09/02 16:02:31;;;;;;;2.13;1.75;;;;;;;;;;10103566;29;20775;-85
2022/09/02 16:07:33;;;;;;;1.93;1.70;;;;;;;;;;10122315;29;20931;-85
2022/09/02 16:12:37;;;;;;;3.85;1.75;;;;;;;;;;10117021;29;21191;-84
2022/09/02 16:17:40;;;;;;;1.83;1.73;;;;;;;;;;10107535;29;21063;-85
2022/09/02 16:22:42;;;;;;;4.07;1.75;;;;;;;;;;10090200;29;20417;-86
2022/09/02 16:27:55;;;;;;;2.33;2.00;;;;;;;;;;10110364;29;20444;-86
2022/09/02 16:32:57;;;;;;;2.15;1.90;;;;;;;;;;10103381;29;20429;-86
2022/09/02 16:38:01;;;;;;;4.45;2.20;;;;;;;;;;10113738;29;20843;-85
2022/09/02 16:43:04;;;;;;;3.45;2.03;;;;;;;;;;10117921;29;20412;-85
2022/09/02 16:48:06;;;;;;;2.10;2.00;;;;;;;;;;10111764;29;20417;-86
2022/09/02 16:53:08;;;;;;;3.25;2.17;;;;;;;;;;10110872;29;20417;-85
2022/09/02 16:58:12;;;;;;;2.08;1.77;;;;;;;;;;10120039;29;20440;-85
2022/09/02 17:03:15;;;;;;;2.47;1.90;;;;;;;;;;10106739;29;20465;-87
2022/09/02 17:08:17;;;;;;;2.10;1.90;;;;;;;;;;10100569;29;20512;-87
2022/09/02 17:13:20;;;;;;;2.80;2.00;;;;;;;;;;10093649;29;20497;-89
2022/09/02 17:18:22;;;;;;;1.67;1.58;;;;;;;;;;10100854;29;20523;-85
2022/09/02 17:23:23;;;;;;;2.90;2.00;;;;;;;;;;10105572;29;20417;-86
2022/09/02 17:28:27;;;;;;;1.95;1.85;;;;;;;;;;10107854;29;20405;-86
2022/09/02 17:33:28;;;;;;;2.60;2.13;;;;;;;;;;10101206;29;20503;-86
2022/09/02 17:38:30;;;;;;;2.35;2.13;;;;;;;;;;10128748;29;20519;-87
2022/09/02 17:43:37;;;;;;;2.60;2.40;;;;;;;;;;10144590;23;20435;-77
2022/09/02 17:48:38;;;;;;;4.32;2.67;;;;;;;;;;10148324;29;21314;-77
2022/09/02 17:53:40;;;;;;;8.40;4.60;;;;;;;;;;10144340;29;20501;-79
2022/09/02 17:58:52;;;;;;;4.43;4.03;;;;;;;;;;10128647;29;20499;-78
2022/09/02 18:04:04;;;;;;;3.90;2.55;;;;;;;;;;10143480;29;20958;-78
2022/09/02 18:09:07;;;;;;;6.43;3.42;;;;;;;;;;10128477;29;20499;-79
2022/09/02 18:14:17;;;;;;;4.70;3.22;;;;;;;;;;10108405;29;20777;-78
2022/09/02 18:19:38;;;;;;;3.30;2.70;;;;;;;;;;10103548;29;20521;-81
2022/09/02 18:24:55;;;;;;;6.15;2.78;;;;;;;;;;10122296;29;20435;-79
2022/09/02 18:30:05;;;;;;;2.60;2.40;;;;;;;;;;10109892;29;20419;-80
2022/09/02 18:35:20;;;;;;;2.77;2.20;;;;;;;;;;10121567;29;20909;-81
2022/09/02 18:40:29;;;;;;;3.50;2.23;;;;;;;;;;10121040;29;20413;-80
2022/09/02 18:45:35;;;;;;;2.35;2.15;;;;;;;;;;10123439;29;20900;-78
2022/09/02 18:50:40;;;;;;;3.67;2.50;;;;;;;;;;10119097;29;21120;-79
2022/09/02 18:55:43;;;;;;;2.97;2.20;;;;;;;;;;10118854;29;20433;-79
2022/09/02 19:00:52;;;;;;;3.27;2.30;;;;;;;;;;10106190;29;20834;-78
2022/09/02 19:05:55;;;;;;;3.10;2.08;;;;;;;;;;10105610;29;20793;-78
2022/09/02 19:11:02;;;;;;;2.75;2.30;;;;;;;;;;10103048;29;20505;-78
2022/09/02 19:16:05;;;;;;;4.30;2.30;;;;;;;;;;10132709;29;20432;-78
2022/09/02 19:21:07;;;;;;;3.90;2.35;;;;;;;;;;10131110;29;20415;-79
2022/09/02 19:26:09;;;;;;;4.80;2.65;;;;;;;;;;10126843;29;20419;-79
2022/09/02 19:31:17;;;;;;;2.47;2.22;;;;;;;;;;10109306;29;20411;-79
2022/09/02 19:36:21;;;;;;;2.88;2.30;;;;;;;;;;10119558;29;20439;-79
2022/09/02 19:41:26;;;;;;;3.53;2.20;;;;;;;;;;10107400;29;20433;-79
2022/09/02 19:46:29;;;;;;;3.15;2.65;;;;;;;;;;10124824;29;20431;-80
2022/09/02 19:51:31;;;;;;;3.75;2.80;;;;;;;;;;10111262;29;20425;-78
2022/09/02 19:56:33;;;;;;;4.40;2.78;;;;;;;;;;10107666;29;20795;-79
2022/09/02 20:01:36;;;;;;;5.50;2.97;;;;;;;;;;10079102;29;20551;-79
2022/09/02 20:06:39;;;;;;;4.03;2.90;;;;;;;;;;10079965;29;20422;-78
2022/09/02 20:11:41;;;;;;;4.27;3.00;;;;;;;;;;10088377;29;20454;-78
2022/09/02 20:16:44;;;;;;;3.83;2.80;;;;;;;;;;10086326;29;20911;-78
2022/09/02 20:21:48;;;;;;;2.92;2.63;;;;;;;;;;10104084;29;20436;-79
2022/09/02 20:26:58;;;;;;;4.75;3.30;;;;;;;;;;10093077;29;20423;-80
2022/09/02 20:32:11;;;;;;;4.00;3.38;;;;;;;;;;10094858;29;20503;-80
2022/09/02 20:37:23;;;;;;;5.07;2.97;;;;;;;;;;10111500;29;20530;-78
2022/09/02 20:42:44;;;;;;;3.70;2.85;;;;;;;;;;10116938;29;20511;-78
2022/09/02 20:48:01;;;;;;;3.73;3.20;;;;;;;;;;10122727;29;20448;-78
2022/09/02 20:53:26;;;;;;;5.53;3.80;;;;;;;;;;10139488;29;20456;-79
2022/09/02 20:58:36;;;;;;;4.18;3.60;;;;;;;;;;10138007;29;20435;-79
2022/09/02 21:03:50;;;;;;;4.45;3.50;;;;;;;;;;10137037;29;20514;-79
2022/09/02 21:09:07;;;;;;;5.05;4.32;;;;;;;;;;10128824;29;20417;-79
2022/09/02 21:14:15;;;;;;;6.75;5.28;;;;;;;;;;10123219;29;20508;-79
2022/09/02 21:19:30;;;;;;;5.70;4.60;;;;;;;;;;10127781;29;20473;-79
2022/09/02 21:24:36;;;;;;;6.18;4.40;;;;;;;;;;10115542;29;20467;-79
2022/09/02 21:29:44;;;;;;;6.18;5.35;;;;;;;;;;10105901;29;20795;-78
2022/09/02 21:34:53;;;;;;;8.25;7.38;;;;;;;;;;10111063;29;20418;-79
2022/09/02 21:40:01;;;;;;;8.73;7.90;;;;;;;;;;10111662;29;20525;-79
2022/09/02 21:45:14;;;;;;;8.70;7.90;;;;;;;;;;10119726;29;20506;-80
2022/09/02 21:50:26;;;;;;;10.40;8.55;;;;;;;;;;10118397;29;20441;-79
2022/09/02 21:55:44;;;;;;;8.70;7.80;;;;;;;;;;10125531;29;20861;-79
2022/09/02 22:00:52;;;;;;;9.55;8.10;;;;;;;;;;10119927;29;20515;-79
2022/09/02 22:06:01;;;;;;;10.70;8.40;;;;;;;;;;10119579;29;20419;-79
2022/09/02 22:11:09;;;;;;;9.73;7.57;;;;;;;;;;10116885;29;20503;-78
2022/09/02 22:16:31;;;;;;;8.33;7.03;;;;;;;;;;10112777;29;20606;-79
2022/09/02 22:21:47;;;;;;;7.68;6.88;;;;;;;;;;10128570;29;20449;-77
2022/09/02 22:26:52;;;;;;;7.07;6.45;;;;;;;;;;10117205;29;20780;-77
2022/09/02 22:31:58;;;;;;;7.18;6.47;;;;;;;;;;10126203;29;20417;-78
2022/09/02 22:37:06;;;;;;;6.80;6.10;;;;;;;;;;10120870;29;20434;-77
2022/09/02 22:42:20;;;;;;;6.55;5.97;;;;;;;;;;10127661;29;20723;-78
2022/09/02 22:52:48;;;;;;;8.03;6.30;;;;;;;;;;10119385;29;20395;-79
2022/09/02 22:58:01;;;;;;;8.60;6.37;;;;;;;;;;10120282;29;20433;-79
2022/09/02 23:03:14;;;;;;;7.68;5.90;;;;;;;;;;10106923;29;20808;-79
2022/09/02 23:08:19;;;;;;;6.22;5.63;;;;;;;;;;10083701;29;20568;-80
2022/09/02 23:13:35;;;;;;;7.22;6.00;;;;;;;;;;10091632;29;20449;-80
2022/09/02 23:18:44;;;;;;;7.40;5.80;;;;;;;;;;10094810;29;20448;-78
2022/09/02 23:23:57;;;;;;;6.60;6.00;;;;;;;;;;10091974;29;20948;-81
2022/09/02 23:29:10;;;;;;;6.75;6.10;;;;;;;;;;10086674;29;20422;-79
2022/09/02 23:34:23;;;;;;;6.40;5.50;;;;;;;;;;10089207;29;20437;-80
2022/09/02 23:39:47;;;;;;;6.47;5.80;;;;;;;;;;10094626;29;20442;-79
2022/09/02 23:44:49;;;;;;;6.37;5.70;;;;;;;;;;10092882;29;20850;-79
2022/09/02 23:49:59;;;;;;;6.53;5.57;;;;;;;;;;10094151;29;20899;-79
2022/09/02 23:55:11;;;;;;;5.82;5.32;;;;;;;;;;10088545;29;20423;-79
